Time;durP1;ratioP1;P1;durP2;ratioP2;P2;SDS_P1;SDS_P2;PMS_P1;PMS_P2;Temp;Humidity;BMP_temperature;BMP_pressure;BME280_temperature;BME280_humidity;BME280_pressure;Samples;Min_cycle;Max_cycle;Signal;HPM_P1;HPM_P2
2024/02/10 00:02:10;;;;;;;;;;;;;;;16.01;46.29;99947.78;4886842;29;2717;-54
2024/02/10 00:04:41;;;;;;;;;;;;;;;15.78;47.09;99953.13;4894692;29;1155;-53
2024/02/10 00:07:07;;;;;;;;;;;;;;;15.60;47.77;99944.06;4891084;29;1158;-53
2024/02/10 00:09:33;;;;;;;;;;;;;;;15.44;48.05;99947.94;4903189;29;1017;-53
2024/02/10 00:12:00;;;;;;;;;;;;;;;16.58;45.50;99949.22;4894567;29;1022;-55
2024/02/10 00:14:26;;;;;;;;;;;;;;;17.44;43.35;99948.97;4884709;29;1983;-55
2024/02/10 00:16:53;;;;;;;;;;;;;;;16.49;45.38;99950.00;4902343;29;1052;-53
2024/02/10 00:19:20;;;;;;;;;;;;;;;16.02;46.52;99945.94;4903391;29;1073;-53
2024/02/10 00:21:46;;;;;;;;;;;;;;;15.81;47.03;99936.13;4902862;29;1123;-50
2024/02/10 00:24:11;;;;;;;;;;;;;;;15.61;47.38;99946.59;4894401;29;1178;-52
2024/02/10 00:26:37;;;;;;;;;;;;;;;15.67;47.33;99951.38;4890372;29;1221;-48
2024/02/10 00:29:03;;;;;;;;;;;;;;;17.11;44.35;99947.38;4902871;29;1017;-51
2024/02/10 00:31:29;;;;;;;;;;;;;;;17.02;44.21;99942.84;4890238;29;2465;-54
2024/02/10 00:33:57;;;;;;;;;;;;;;;16.31;45.68;99944.47;4896839;29;1066;-55
2024/02/10 00:36:25;;;;;;;;;;;;;;;15.96;46.92;99936.69;4901233;29;1895;-54
2024/02/10 00:38:51;;;;;;;;;;;;;;;15.79;46.87;99943.38;4897086;29;1055;-54
2024/02/10 00:41:16;;;;;;;;;;;;;;;15.54;47.57;99940.94;4902926;29;1169;-53
2024/02/10 00:43:42;;;;;;;;;;;;;;;16.38;45.88;99935.84;4890251;29;1034;-52
2024/02/10 00:46:17;;;;;;;;;;;;;;;17.37;43.44;99938.91;4902889;29;1046;-53
2024/02/10 00:48:43;;;;;;;;;;;;;;;16.43;45.60;99937.28;4890639;29;1098;-52
2024/02/10 00:51:09;;;;;;;;;;;;;;;15.99;46.46;99944.41;4898613;29;1122;-49
2024/02/10 00:53:39;;;;;;;;;;;;;;;15.74;46.92;99945.56;4897677;29;1075;-52
2024/02/10 00:56:08;;;;;;;;;;;;;;;15.59;47.71;99943.22;4902657;29;1976;-51
2024/02/10 00:58:34;;;;;;;;;;;;;;;15.91;46.91;99937.03;4902324;29;1157;-52
2024/02/10 01:01:00;;;;;;;;;;;;;;;17.29;43.79;99936.09;4889697;29;2595;-52
2024/02/10 01:03:25;;;;;;;;;;;;;;;16.91;44.41;99934.97;4899376;29;1150;-51
2024/02/10 01:05:51;;;;;;;;;;;;;;;16.18;45.98;99937.56;4893344;29;1098;-48
2024/02/10 01:08:17;;;;;;;;;;;;;;;15.89;46.75;99943.44;4883975;29;1082;-51
2024/02/10 01:10:44;;;;;;;;;;;;;;;15.70;47.39;99939.66;4883898;29;1226;-50
2024/02/10 01:13:10;;;;;;;;;;;;;;;15.55;47.48;99924.06;4888906;29;1135;-50
2024/02/10 01:15:35;;;;;;;;;;;;;;;16.05;46.90;99918.34;4901784;29;1903;-53
2024/02/10 01:18:04;;;;;;;;;;;;;;;17.36;43.77;99931.06;4901349;29;1102;-53
2024/02/10 01:20:30;;;;;;;;;;;;;;;16.50;45.13;99927.78;4902425;29;1214;-52
2024/02/10 01:22:59;;;;;;;;;;;;;;;16.03;46.62;99919.28;4889794;29;1189;-52
2024/02/10 01:25:24;;;;;;;;;;;;;;;15.80;47.16;99926.47;4891409;29;1062;-53
2024/02/10 01:27:50;;;;;;;;;;;;;;;15.59;47.22;99922.00;4895729;29;1047;-53
2024/02/10 01:30:19;;;;;;;;;;;;;;;15.46;47.82;99926.63;4882999;29;2459;-54
2024/02/10 01:32:45;;;;;;;;;;;;;;;16.99;44.64;99930.66;4896074;29;1139;-54
2024/02/10 01:35:11;;;;;;;;;;;;;;;16.73;44.71;99924.97;4894127;29;1974;-54
2024/02/10 01:37:38;;;;;;;;;;;;;;;16.09;46.34;99917.94;4900040;29;1126;-54
2024/02/10 01:40:06;;;;;;;;;;;;;;;15.85;47.01;99916.34;4902072;29;1189;-54
2024/02/10 01:42:38;;;;;;;;;;;;;;;15.61;47.64;99914.78;4901381;29;1124;-52
2024/02/10 01:45:07;;;;;;;;;;;;;;;15.45;47.87;99920.47;4901758;29;1010;-51
2024/02/10 01:47:36;;;;;;;;;;;;;;;16.90;44.56;99915.53;4896060;29;1174;-53
2024/02/10 01:50:02;;;;;;;;;;;;;;;17.17;43.90;99918.56;4900299;29;1116;-50
2024/02/10 01:52:28;;;;;;;;;;;;;;;16.39;45.60;99929.59;4901445;29;1101;-54
2024/02/10 01:54:53;;;;;;;;;;;;;;;15.98;46.43;99925.94;4900528;29;1911;-54
2024/02/10 01:57:20;;;;;;;;;;;;;;;15.70;47.12;99920.28;4900258;29;1159;-54
2024/02/10 01:59:47;;;;;;;;;;;;;;;15.59;47.47;99923.81;4901611;29;1062;-54
2024/02/10 02:02:14;;;;;;;;;;;;;;;15.37;47.80;99917.59;4888323;29;2502;-55
2024/02/10 02:04:40;;;;;;;;;;;;;;;16.73;44.91;99914.34;4901280;29;1046;-53
2024/02/10 02:07:08;;;;;;;;;;;;;;;17.05;43.97;99907.19;4895808;29;1093;-54
2024/02/10 02:09:34;;;;;;;;;;;;;;;16.22;46.02;99907.13;4882971;29;1026;-54
2024/02/10 02:12:03;;;;;;;;;;;;;;;15.90;46.50;99900.88;4904776;29;1039;-52
2024/02/10 02:14:29;;;;;;;;;;;;;;;15.70;47.00;99904.38;4900070;29;1907;-53
2024/02/10 02:16:55;;;;;;;;;;;;;;;15.49;47.75;99913.13;4882733;29;1294;-53
2024/02/10 02:19:21;;;;;;;;;;;;;;;16.71;45.27;99903.03;4894246;29;1082;-52
2024/02/10 02:21:47;;;;;;;;;;;;;;;17.18;43.78;99910.47;4888370;29;1225;-56
2024/02/10 02:24:12;;;;;;;;;;;;;;;16.32;45.51;99901.88;4899622;29;1109;-51
2024/02/10 02:26:38;;;;;;;;;;;;;;;15.87;46.86;99906.44;4888264;29;990;-52
2024/02/10 02:29:07;;;;;;;;;;;;;;;15.81;46.83;99900.81;4901053;29;1046;-53
2024/02/10 02:31:34;;;;;;;;;;;;;;;15.55;47.32;99915.25;4887492;29;2594;-52
2024/02/10 02:34:02;;;;;;;;;;;;;;;15.44;47.67;99910.84;4894807;29;1066;-52
2024/02/10 02:36:28;;;;;;;;;;;;;;;16.89;44.68;99901.41;4897755;29;1902;-54
2024/02/10 02:38:53;;;;;;;;;;;;;;;17.16;43.71;99898.28;4882497;29;1141;-54
2024/02/10 02:41:19;;;;;;;;;;;;;;;16.32;45.75;99917.78;4894794;29;1038;-54
2024/02/10 02:43:45;;;;;;;;;;;;;;;16.00;46.42;99913.38;4895235;29;1328;-54
2024/02/10 02:46:14;;;;;;;;;;;;;;;15.67;47.13;99911.59;4900936;29;1093;-55
2024/02/10 02:48:39;;;;;;;;;;;;;;;15.51;47.52;99925.28;4900433;29;1530;-53
2024/02/10 02:51:05;;;;;;;;;;;;;;;15.42;47.63;99931.31;4900841;29;1120;-53
2024/02/10 02:53:31;;;;;;;;;;;;;;;16.63;45.10;99925.75;4902245;29;1091;-53
2024/02/10 02:55:58;;;;;;;;;;;;;;;17.13;43.90;99926.00;4894040;29;1906;-55
2024/02/10 02:58:23;;;;;;;;;;;;;;;16.32;45.64;99931.06;4882331;29;1145;-54
2024/02/10 03:00:49;;;;;;;;;;;;;;;15.89;46.48;99940.78;4888614;29;1063;-52
2024/02/10 03:03:15;;;;;;;;;;;;;;;15.64;47.09;99943.69;4900298;29;1124;-54
2024/02/10 03:05:40;;;;;;;;;;;;;;;15.51;47.37;99943.00;4889571;29;1094;-50
2024/02/10 03:08:06;;;;;;;;;;;;;;;15.87;46.94;99940.06;4887508;29;1150;-50
2024/02/10 03:10:32;;;;;;;;;;;;;;;17.27;43.72;99950.50;4888106;29;1109;-51
2024/02/10 03:12:57;;;;;;;;;;;;;;;16.76;44.49;99952.13;4906044;29;1232;-49
2024/02/10 03:15:27;;;;;;;;;;;;;;;16.11;46.01;99941.69;4888426;29;1982;-52
2024/02/10 03:17:54;;;;;;;;;;;;;;;15.79;47.08;99943.38;4887829;29;1137;-51
2024/02/10 03:20:28;;;;;;;;;;;;;;;15.61;47.24;99946.59;4892830;29;1229;-50
2024/02/10 03:23:02;;;;;;;;;;;;;;;15.48;47.35;99954.66;4884757;29;1153;-52
2024/02/10 03:25:28;;;;;;;;;;;;;;;16.73;44.88;99949.72;4892182;29;1078;-52
2024/02/10 03:27:54;;;;;;;;;;;;;;;17.11;43.70;99941.22;4884930;29;1097;-53
2024/02/10 03:30:19;;;;;;;;;;;;;;;16.25;45.72;99929.88;4891025;29;1174;-52
2024/02/10 03:32:45;;;;;;;;;;;;;;;15.86;46.96;99936.59;4897423;29;1138;-50
2024/02/10 03:35:10;;;;;;;;;;;;;;;15.73;47.09;99950.00;4900612;29;1911;-55
2024/02/10 03:37:36;;;;;;;;;;;;;;;15.49;47.78;99942.28;4892847;29;1193;-53
2024/02/10 03:40:09;;;;;;;;;;;;;;;16.13;46.63;99945.88;4903610;29;1229;-51
2024/02/10 03:42:35;;;;;;;;;;;;;;;17.34;43.27;99935.66;4903439;29;1058;-50
2024/02/10 03:45:00;;;;;;;;;;;;;;;16.46;45.37;99945.81;4891056;29;1046;-52
2024/02/10 03:47:26;;;;;;;;;;;;;;;15.99;46.46;99938.25;4904010;29;1054;-57
2024/02/10 03:49:51;;;;;;;;;;;;;;;15.79;46.95;99935.41;4897292;29;1022;-50
2024/02/10 03:52:17;;;;;;;;;;;;;;;15.58;47.54;99932.72;4903853;29;1117;-51
2024/02/10 03:54:42;;;;;;;;;;;;;;;15.51;47.44;99935.91;4902850;29;1907;-54
2024/02/10 03:57:08;;;;;;;;;;;;;;;16.96;44.32;99925.63;4891418;29;1153;-52
2024/02/10 03:59:35;;;;;;;;;;;;;;;17.08;43.75;99925.53;4894157;29;1022;-50
2024/02/10 04:02:01;;;;;;;;;;;;;;;16.25;45.64;99917.47;4894641;29;1074;-51
2024/02/10 04:04:28;;;;;;;;;;;;;;;15.89;46.83;99916.94;4893267;29;1138;-48
2024/02/10 04:06:53;;;;;;;;;;;;;;;15.69;46.90;99907.97;4896782;29;2344;-50
2024/02/10 04:09:20;;;;;;;;;;;;;;;15.54;47.40;99902.97;4894834;29;1133;-52
2024/02/10 04:11:46;;;;;;;;;;;;;;;15.35;47.97;99906.31;4902758;29;1050;-54
2024/02/10 04:14:19;;;;;;;;;;;;;;;16.54;45.68;99913.28;4902749;29;867;-54
2024/02/10 04:16:46;;;;;;;;;;;;;;;17.46;43.17;99908.00;4885635;29;1085;-53
2024/02/10 04:19:12;;;;;;;;;;;;;;;16.54;45.03;99910.63;4896407;29;1051;-58
2024/02/10 04:21:38;;;;;;;;;;;;;;;16.08;46.01;99913.59;4898249;29;1069;-51
2024/02/10 04:24:04;;;;;;;;;;;;;;;15.81;46.81;99914.06;4895518;29;1097;-53
2024/02/10 04:26:29;;;;;;;;;;;;;;;15.60;47.48;99910.41;4902680;29;1173;-48
2024/02/10 04:28:55;;;;;;;;;;;;;;;15.50;47.34;99917.44;4891762;29;1115;-50
2024/02/10 04:31:21;;;;;;;;;;;;;;;16.64;45.04;99908.03;4889008;29;1475;-54
2024/02/10 04:33:50;;;;;;;;;;;;;;;16.90;44.03;99910.19;4891813;29;1054;-49
2024/02/10 04:36:16;;;;;;;;;;;;;;;16.11;45.96;99910.69;4902058;29;1903;-52
2024/02/10 04:38:41;;;;;;;;;;;;;;;15.79;47.04;99916.84;4900969;29;2907;-50
2024/02/10 04:41:07;;;;;;;;;;;;;;;15.60;47.21;99923.66;4902613;29;1181;-52
2024/02/10 04:43:34;;;;;;;;;;;;;;;15.47;47.64;99921.19;4902011;29;1078;-48
2024/02/10 04:45:59;;;;;;;;;;;;;;;15.78;47.52;99912.53;4890554;29;1162;-52
2024/02/10 04:48:25;;;;;;;;;;;;;;;17.08;44.02;99926.34;4903102;29;788;-50
2024/02/10 04:50:56;;;;;;;;;;;;;;;16.90;44.36;99934.13;4896799;29;1027;-49
2024/02/10 04:53:22;;;;;;;;;;;;;;;16.14;45.96;99949.38;4902408;29;1105;-44
2024/02/10 04:55:47;;;;;;;;;;;;;;;15.80;46.71;99947.69;4890681;29;1907;-47
2024/02/10 04:58:13;;;;;;;;;;;;;;;15.71;46.96;99949.31;4902516;29;1065;-45
2024/02/10 05:00:39;;;;;;;;;;;;;;;15.43;47.25;99944.44;4890034;29;1170;-45
2024/02/10 05:03:04;;;;;;;;;;;;;;;16.27;46.15;99938.56;4900278;29;960;-48
2024/02/10 05:05:30;;;;;;;;;;;;;;;17.38;43.28;99935.25;4889509;29;1054;-49
2024/02/10 05:07:56;;;;;;;;;;;;;;;16.38;45.28;99942.97;4890219;29;2649;-44
2024/02/10 05:10:22;;;;;;;;;;;;;;;15.88;46.63;99937.28;4883988;29;992;-50
2024/02/10 05:12:48;;;;;;;;;;;;;;;15.76;46.92;99938.31;4884370;29;1074;-47
2024/02/10 05:15:20;;;;;;;;;;;;;;;15.57;47.34;99937.19;4897450;29;1902;-48
2024/02/10 05:17:49;;;;;;;;;;;;;;;17.05;44.01;99929.28;4902110;29;1134;-47
2024/02/10 05:20:21;;;;;;;;;;;;;;;16.53;44.57;99932.88;4902314;29;1038;-47
2024/02/10 05:22:47;;;;;;;;;;;;;;;15.36;47.12;99929.19;4901879;29;1054;-51
2024/02/10 05:25:13;;;;;;;;;;;;;;;17.18;44.03;99926.41;4901412;29;1050;-53
2024/02/10 05:27:39;;;;;;;;;;;;;;;16.14;45.51;99934.31;4895640;29;913;-53
2024/02/10 05:30:05;;;;;;;;;;;;;;;15.48;46.79;99938.75;4902284;29;1416;-52
2024/02/10 05:32:30;;;;;;;;;;;;;;;16.91;44.76;99932.31;4902307;29;1125;-50
2024/02/10 05:34:56;;;;;;;;;;;;;;;16.35;45.23;99920.19;4899956;29;1971;-50
2024/02/10 05:37:22;;;;;;;;;;;;;;;15.55;46.95;99928.50;4883909;29;2530;-49
2024/02/10 05:39:47;;;;;;;;;;;;;;;16.14;46.84;99926.34;4899034;29;865;-52
2024/02/10 05:42:13;;;;;;;;;;;;;;;17.14;43.83;99930.31;4883290;29;1074;-53
2024/02/10 05:44:40;;;;;;;;;;;;;;;15.85;46.32;99940.19;4898076;29;1143;-48
2024/02/10 05:47:06;;;;;;;;;;;;;;;15.47;46.60;99949.50;4893268;29;1042;-51
2024/02/10 05:49:34;;;;;;;;;;;;;;;16.59;45.88;99958.88;4897563;29;1174;-50
2024/02/10 05:52:00;;;;;;;;;;;;;;;17.48;43.38;99964.50;4901279;29;1519;-52
2024/02/10 05:54:33;;;;;;;;;;;;;;;16.06;46.40;99975.72;4889040;29;1903;-53
2024/02/10 05:56:58;;;;;;;;;;;;;;;17.33;44.31;99973.88;4889204;29;1138;-53
2024/02/10 05:59:24;;;;;;;;;;;;;;;16.57;45.26;99978.56;4901968;29;1166;-47
2024/02/10 06:01:51;;;;;;;;;;;;;;;15.86;46.06;99972.88;4899002;29;1130;-47
2024/02/10 06:04:17;;;;;;;;;;;;;;;15.95;46.87;99977.41;4882919;29;1039;-49
2024/02/10 06:06:45;;;;;;;;;;;;;;;17.92;42.83;99970.41;4882570;29;2436;-49
2024/02/10 06:09:10;;;;;;;;;;;;;;;16.30;45.63;99974.66;4883112;29;1016;-47
2024/02/10 06:11:36;;;;;;;;;;;;;;;15.79;45.99;99980.50;4897715;29;1114;-51
2024/02/10 06:14:01;;;;;;;;;;;;;;;17.08;45.15;99979.47;4898733;29;1074;-50
2024/02/10 06:16:27;;;;;;;;;;;;;;;16.33;45.94;99990.31;4894318;29;1990;-50
2024/02/10 06:18:52;;;;;;;;;;;;;;;16.91;45.58;99985.44;4891812;29;1139;-51
2024/02/10 06:21:18;;;;;;;;;;;;;;;17.98;42.53;99986.66;4901062;29;1054;-52
2024/02/10 06:23:43;;;;;;;;;;;;;;;16.45;45.65;99975.97;4900939;29;1038;-52
2024/02/10 06:26:13;;;;;;;;;;;;;;;16.01;46.26;99973.47;4897753;29;1041;-50
2024/02/10 06:28:39;;;;;;;;;;;;;;;15.83;45.97;99981.91;4891397;29;1111;-47
2024/02/10 06:31:05;;;;;;;;;;;;;;;15.46;45.80;99980.47;4888384;29;1093;-49
2024/02/10 06:33:30;;;;;;;;;;;;;;;17.46;44.28;99974.47;4901271;29;1046;-50
2024/02/10 06:36:00;;;;;;;;;;;;;;;16.18;46.02;99993.28;4898572;29;1988;-50
2024/02/10 06:38:32;;;;;;;;;;;;;;;15.61;46.25;99996.97;4911494;29;2713;-51
2024/02/10 06:41:01;;;;;;;;;;;;;;;17.25;45.15;99995.78;4900703;29;1034;-49
2024/02/10 06:43:26;;;;;;;;;;;;;;;16.43;45.90;99998.34;4900629;29;1034;-52
2024/02/10 06:45:52;;;;;;;;;;;;;;;15.87;46.33;100001.94;4884302;29;1085;-50
2024/02/10 06:48:18;;;;;;;;;;;;;;;17.44;44.56;99995.03;4892083;29;1098;-49
2024/02/10 06:50:44;;;;;;;;;;;;;;;16.41;45.91;99995.81;4897383;29;1142;-50
2024/02/10 06:53:10;;;;;;;;;;;;;;;15.88;46.72;99987.69;4900889;29;1079;-51
2024/02/10 06:55:36;;;;;;;;;;;;;;;17.22;45.07;99980.97;4888605;29;1906;-49
2024/02/10 06:58:02;;;;;;;;;;;;;;;16.10;46.55;99980.63;4889781;29;1529;-49
2024/02/10 07:00:27;;;;;;;;;;;;;;;15.78;46.27;99981.47;4886194;29;1082;-50
2024/02/10 07:02:56;;;;;;;;;;;;;;;17.19;45.25;99983.06;4894554;29;1050;-50
2024/02/10 07:05:22;;;;;;;;;;;;;;;16.90;45.17;99997.88;4894482;29;1249;-50
2024/02/10 07:07:48;;;;;;;;;;;;;;;16.09;46.30;100002.00;4906848;29;2433;-50
2024/02/10 07:10:18;;;;;;;;;;;;;;;15.81;46.27;99998.94;4900342;29;1193;-48
2024/02/10 07:12:44;;;;;;;;;;;;;;;16.70;46.24;99999.63;4900294;29;1111;-48
2024/02/10 07:15:14;;;;;;;;;;;;;;;16.88;45.13;100003.31;4896414;29;1903;-50
2024/02/10 07:17:43;;;;;;;;;;;;;;;16.02;46.34;99991.03;4898601;29;1035;-52
2024/02/10 07:20:15;;;;;;;;;;;;;;;15.74;46.05;99982.69;4892349;29;1054;-47
2024/02/10 07:22:40;;;;;;;;;;;;;;;15.65;45.81;99997.53;4903034;29;1062;-50
2024/02/10 07:25:07;;;;;;;;;;;;;;;17.13;45.30;100003.88;4893118;29;1383;-49
2024/02/10 07:27:33;;;;;;;;;;;;;;;16.47;46.08;100013.00;4895192;29;1086;-48
2024/02/10 07:29:59;;;;;;;;;;;;;;;15.83;46.67;100015.56;4903845;29;1122;-49
2024/02/10 07:32:26;;;;;;;;;;;;;;;17.10;45.58;100013.97;4902485;29;1041;-51
2024/02/10 07:34:54;;;;;;;;;;;;;;;16.50;45.99;100016.25;4885372;29;1903;-47
2024/02/10 07:37:19;;;;;;;;;;;;;;;15.90;46.64;100022.03;4894565;29;2606;-50
2024/02/10 07:39:50;;;;;;;;;;;;;;;16.01;47.18;100026.50;4901061;29;862;-50
2024/02/10 07:42:16;;;;;;;;;;;;;;;17.22;44.46;100022.66;4901157;29;1054;-52
2024/02/10 07:44:41;;;;;;;;;;;;;;;16.11;46.49;100040.72;4885769;29;1257;-48
2024/02/10 07:47:10;;;;;;;;;;;;;;;15.86;46.24;100036.53;4900119;29;1073;-50
2024/02/10 07:49:35;;;;;;;;;;;;;;;15.66;45.79;100045.13;4894597;29;1336;-46
2024/02/10 07:52:01;;;;;;;;;;;;;;;17.57;44.48;100034.66;4890915;29;1022;-48
2024/02/10 07:54:27;;;;;;;;;;;;;;;16.36;46.49;100041.31;4895304;29;1918;-50
2024/02/10 07:56:54;;;;;;;;;;;;;;;16.64;46.92;100038.16;4887428;29;1135;-46
2024/02/10 07:59:20;;;;;;;;;;;;;;;17.37;44.33;100020.47;4903890;29;1145;-46
2024/02/10 08:01:46;;;;;;;;;;;;;;;16.24;46.29;100032.56;4901587;29;1039;-48
2024/02/10 08:04:12;;;;;;;;;;;;;;;15.99;46.31;100036.41;4884541;29;865;-45
2024/02/10 08:06:37;;;;;;;;;;;;;;;15.78;45.81;100035.34;4884418;29;2597;-44
2024/02/10 08:09:03;;;;;;;;;;;;;;;16.84;46.16;100038.25;4884842;29;1177;-49
2024/02/10 08:11:28;;;;;;;;;;;;;;;17.15;44.92;100038.28;4899480;29;1081;-45
2024/02/10 08:13:54;;;;;;;;;;;;;;;16.26;46.49;100037.75;4903442;29;1157;-50
2024/02/10 08:16:21;;;;;;;;;;;;;;;15.88;46.36;100039.91;4898613;29;1976;-47
2024/02/10 08:18:49;;;;;;;;;;;;;;;15.76;46.12;100050.56;4885105;29;1015;-50
2024/02/10 08:21:17;;;;;;;;;;;;;;;15.64;45.79;100062.13;4887754;29;1031;-50
2024/02/10 08:23:46;;;;;;;;;;;;;;;16.78;45.88;100063.53;4893660;29;1182;-47
2024/02/10 08:26:12;;;;;;;;;;;;;;;16.52;46.14;100055.94;4887210;29;1082;-50
2024/02/10 08:28:39;;;;;;;;;;;;;;;16.13;47.24;100046.72;4888930;29;956;-47
2024/02/10 08:31:04;;;;;;;;;;;;;;;17.93;43.62;100049.28;4888050;29;1058;-47
2024/02/10 08:33:33;;;;;;;;;;;;;;;16.44;46.26;100048.63;4893176;29;1393;-46
2024/02/10 08:35:59;;;;;;;;;;;;;;;15.99;46.49;100042.56;4884266;29;1906;-47
2024/02/10 08:38:29;;;;;;;;;;;;;;;16.28;46.89;100049.09;4899575;29;2688;-44
2024/02/10 08:40:54;;;;;;;;;;;;;;;17.40;44.63;100046.78;4901057;29;1182;-46
2024/02/10 08:43:20;;;;;;;;;;;;;;;16.24;46.49;100047.66;4892306;29;1045;-45
2024/02/10 08:45:46;;;;;;;;;;;;;;;16.05;46.23;100051.81;4896589;29;1265;-46
2024/02/10 08:48:12;;;;;;;;;;;;;;;15.81;46.07;100059.94;4895252;29;1024;-49
2024/02/10 08:50:41;;;;;;;;;;;;;;;15.85;46.41;100056.91;4889333;29;1106;-47
2024/02/10 08:53:06;;;;;;;;;;;;;;;16.48;46.31;100058.00;4897567;29;848;-48
2024/02/10 08:55:32;;;;;;;;;;;;;;;15.88;46.67;100054.00;4917325;29;1987;-43
2024/02/10 08:58:01;;;;;;;;;;;;;;;16.31;47.22;100054.13;4903245;29;1201;-45
2024/02/10 09:00:27;;;;;;;;;;;;;;;17.06;45.41;100053.22;4898588;29;1153;-46
2024/02/10 09:02:53;;;;;;;;;;;;;;;16.02;46.74;100054.72;4894240;29;1062;-48
2024/02/10 09:05:19;;;;;;;;;;;;;;;15.76;46.86;100045.25;4897188;29;879;-46
2024/02/10 09:07:44;;;;;;;;;;;;;;;15.67;45.95;100045.97;4884072;29;2120;-49
2024/02/10 09:10:10;;;;;;;;;;;;;;;16.95;45.84;100051.47;4896261;29;1078;-46
2024/02/10 09:12:36;;;;;;;;;;;;;;;16.89;45.60;100050.19;4893964;29;1027;-47
2024/02/10 09:15:02;;;;;;;;;;;;;;;16.08;46.86;100043.59;4901873;29;1906;-47
2024/02/10 09:17:28;;;;;;;;;;;;;;;15.78;46.37;100042.47;4884836;29;1539;-49
2024/02/10 09:19:53;;;;;;;;;;;;;;;15.60;46.78;100045.63;4899826;29;1085;-45
2024/02/10 09:22:19;;;;;;;;;;;;;;;17.64;44.72;100045.59;4902287;29;1117;-46
2024/02/10 09:24:44;;;;;;;;;;;;;;;16.36;46.41;100043.13;4901960;29;1013;-45
2024/02/10 09:27:10;;;;;;;;;;;;;;;15.91;47.52;100039.66;4902141;29;1125;-49
2024/02/10 09:29:35;;;;;;;;;;;;;;;17.95;43.65;100031.38;4901708;29;959;-47
2024/02/10 09:32:01;;;;;;;;;;;;;;;16.47;46.32;100024.47;4892358;29;1428;-46
2024/02/10 09:34:27;;;;;;;;;;;;;;;16.09;46.73;100020.56;4899655;29;1901;-46
2024/02/10 09:36:53;;;;;;;;;;;;;;;15.93;46.26;100018.31;4891875;29;2195;-46
2024/02/10 09:39:18;;;;;;;;;;;;;;;15.74;45.80;100011.84;4895601;29;1102;-46
2024/02/10 09:41:44;;;;;;;;;;;;;;;15.58;45.61;100012.25;4907079;29;888;-47
2024/02/10 09:44:10;;;;;;;;;;;;;;;16.85;45.95;100006.25;4901785;29;1138;-45
2024/02/10 09:46:36;;;;;;;;;;;;;;;16.50;46.41;100010.09;4902228;29;1038;-48
2024/02/10 09:49:07;;;;;;;;;;;;;;;15.96;46.77;100002.13;4900880;29;1046;-48
2024/02/10 09:51:43;;;;;;;;;;;;;;;15.64;46.83;99996.69;4900167;29;1061;-48
2024/02/10 09:54:09;;;;;;;;;;;;;;;15.49;46.29;100006.72;4883008;29;1042;-45
2024/02/10 09:56:35;;;;;;;;;;;;;;;17.13;45.59;100006.53;4894777;29;1907;-47
2024/02/10 09:59:01;;;;;;;;;;;;;;;16.62;46.29;99995.78;4883489;29;1142;-49
2024/02/10 10:01:34;;;;;;;;;;;;;;;15.97;46.87;100003.81;4895148;29;1112;-49
2024/02/10 10:04:00;;;;;;;;;;;;;;;15.70;46.55;99998.00;4889442;29;1055;-50
2024/02/10 10:06:25;;;;;;;;;;;;;;;15.82;47.37;99988.19;4888546;29;2011;-47
2024/02/10 10:08:51;;;;;;;;;;;;;;;17.83;44.41;99986.25;4889451;29;1099;-47
2024/02/10 10:11:16;;;;;;;;;;;;;;;16.48;46.32;99981.03;4901553;29;1138;-46
2024/02/10 10:13:42;;;;;;;;;;;;;;;16.01;46.89;99984.06;4901264;29;1185;-46
2024/02/10 10:16:08;;;;;;;;;;;;;;;15.93;47.34;99987.34;4897345;29;1906;-47
2024/02/10 10:18:35;;;;;;;;;;;;;;;17.77;44.14;99978.81;4901047;29;1070;-49
2024/02/10 10:21:00;;;;;;;;;;;;;;;16.36;46.51;99980.28;4888832;29;1150;-46
2024/02/10 10:23:31;;;;;;;;;;;;;;;16.02;46.78;99980.44;4901724;29;1174;-48
2024/02/10 10:25:56;;;;;;;;;;;;;;;15.81;46.37;99975.06;4901381;29;1022;-49
2024/02/10 10:28:22;;;;;;;;;;;;;;;15.88;46.91;99984.22;4895976;29;1030;-49
2024/02/10 10:30:47;;;;;;;;;;;;;;;17.85;44.53;99970.97;4896131;29;1142;-47
2024/02/10 10:33:18;;;;;;;;;;;;;;;16.11;46.78;99923.13;4893452;29;1019;-47
2024/02/10 10:35:44;;;;;;;;;;;;;;;16.00;46.65;99972.59;4898296;29;1879;-46
2024/02/10 10:38:11;;;;;;;;;;;;;;;15.84;46.25;99977.47;4895558;29;2254;-48
2024/02/10 10:40:37;;;;;;;;;;;;;;;17.75;44.75;99978.13;4890309;29;1039;-47
2024/02/10 10:43:05;;;;;;;;;;;;;;;16.46;46.83;99982.13;4882953;29;1129;-49
2024/02/10 10:45:34;;;;;;;;;;;;;;;16.06;46.89;99971.25;4884171;29;1043;-49
2024/02/10 10:48:02;;;;;;;;;;;;;;;16.27;47.70;99959.81;4900022;29;1097;-46
2024/02/10 10:50:28;;;;;;;;;;;;;;;16.50;46.71;99968.47;4900995;29;1163;-47
2024/02/10 10:52:56;;;;;;;;;;;;;;;16.00;46.93;99966.44;4899025;29;1090;-51
2024/02/10 10:55:27;;;;;;;;;;;;;;;15.79;46.45;99948.69;4913997;29;1911;-48
2024/02/10 10:57:53;;;;;;;;;;;;;;;15.61;46.15;99951.88;4905767;29;1085;-50
2024/02/10 11:00:21;;;;;;;;;;;;;;;17.67;44.94;99948.72;4896458;29;1134;-47
2024/02/10 11:02:52;;;;;;;;;;;;;;;16.26;46.92;99937.75;4881761;29;1135;-48
2024/02/10 11:05:18;;;;;;;;;;;;;;;16.64;47.04;99937.22;4897771;29;1083;-46
2024/02/10 11:07:45;;;;;;;;;;;;;;;16.98;45.79;99934.28;4889739;29;2526;-45
2024/02/10 11:10:10;;;;;;;;;;;;;;;16.24;46.70;99938.84;4894579;29;1050;-48
2024/02/10 11:12:36;;;;;;;;;;;;;;;15.91;46.61;99934.38;4882188;29;1039;-46
2024/02/10 11:15:02;;;;;;;;;;;;;;;16.68;46.60;99945.78;4898929;29;1899;-44
2024/02/10 11:17:30;;;;;;;;;;;;;;;16.89;45.87;99943.91;4900116;29;1205;-44
2024/02/10 11:20:06;;;;;;;;;;;;;;;16.29;46.71;99947.25;4888157;29;1229;-53
2024/02/10 11:22:40;;;;;;;;;;;;;;;15.98;46.49;99948.00;4900215;29;1081;-48
2024/02/10 11:25:12;;;;;;;;;;;;;;;15.79;45.94;99944.22;4900108;29;1058;-48
2024/02/10 11:27:38;;;;;;;;;;;;;;;15.63;46.01;99941.16;4914182;29;1066;-47
2024/02/10 11:30:04;;;;;;;;;;;;;;;15.55;45.91;99941.75;4911426;29;865;-49
2024/02/10 11:32:31;;;;;;;;;;;;;;;17.51;45.31;99931.50;4896046;29;1062;-46
2024/02/10 11:34:57;;;;;;;;;;;;;;;16.35;46.94;99927.31;4892102;29;1898;-48
2024/02/10 11:37:25;;;;;;;;;;;;;;;15.99;47.20;99923.19;4881952;29;2532;-49
2024/02/10 11:39:54;;;;;;;;;;;;;;;15.75;46.43;99921.56;4903983;29;1063;-47
2024/02/10 11:42:20;;;;;;;;;;;;;;;16.68;47.01;99928.03;4886671;29;892;-46
2024/02/10 11:44:46;;;;;;;;;;;;;;;16.37;47.25;99938.63;4900251;29;1050;-47
2024/02/10 11:47:12;;;;;;;;;;;;;;;15.93;47.11;99934.28;4884960;29;1208;-46
2024/02/10 11:49:38;;;;;;;;;;;;;;;15.78;46.82;99933.75;4881503;29;1110;-45
2024/02/10 11:52:07;;;;;;;;;;;;;;;16.81;46.82;99935.78;4897410;29;1182;-48
2024/02/10 11:54:33;;;;;;;;;;;;;;;16.06;47.13;99935.94;4899930;29;1915;-46
2024/02/10 11:57:03;;;;;;;;;;;;;;;15.79;47.13;99928.31;4887281;29;1045;-45
2024/02/10 11:59:29;;;;;;;;;;;;;;;15.62;46.64;99928.84;4905534;29;1063;-46
2024/02/10 12:01:55;;;;;;;;;;;;;;;16.70;46.73;99928.72;4898864;29;1122;-45
2024/02/10 12:04:20;;;;;;;;;;;;;;;18.00;43.91;99935.97;4894321;29;1122;-50
2024/02/10 12:06:48;;;;;;;;;;;;;;;16.46;46.86;99932.56;4888286;29;2716;-49
2024/02/10 12:09:14;;;;;;;;;;;;;;;16.10;46.48;99932.06;4903521;29;1026;-47
2024/02/10 12:11:40;;;;;;;;;;;;;;;15.83;46.53;99936.81;4903686;29;1093;-48
2024/02/10 12:14:10;;;;;;;;;;;;;;;15.68;46.24;99933.66;4903829;29;1228;-48
2024/02/10 12:16:35;;;;;;;;;;;;;;;17.17;45.67;99921.22;4902548;29;1989;-45
2024/02/10 12:19:03;;;;;;;;;;;;;;;16.09;47.12;99931.22;4884330;29;1063;-49
2024/02/10 12:21:31;;;;;;;;;;;;;;;15.73;47.03;99936.75;4888323;29;1035;-47
2024/02/10 12:23:56;;;;;;;;;;;;;;;15.63;46.46;99933.19;4903168;29;1133;-47
2024/02/10 12:26:22;;;;;;;;;;;;;;;17.55;45.31;99932.06;4903464;29;1096;-50
2024/02/10 12:28:48;;;;;;;;;;;;;;;16.57;46.84;99933.41;4901627;29;1022;-46
2024/02/10 12:31:17;;;;;;;;;;;;;;;15.99;46.96;99932.94;4898976;29;1034;-49
2024/02/10 12:33:42;;;;;;;;;;;;;;;15.81;47.01;99938.78;4895141;29;1123;-46
2024/02/10 12:36:11;;;;;;;;;;;;;;;15.60;46.44;99922.84;4902708;29;1915;-45
2024/02/10 12:38:38;;;;;;;;;;;;;;;16.94;46.54;99919.59;4896181;29;2838;-47
2024/02/10 12:41:04;;;;;;;;;;;;;;;17.16;45.69;99922.19;4887531;29;1022;-47
2024/02/10 12:43:31;;;;;;;;;;;;;;;16.20;47.00;99929.47;4884264;29;1070;-46
2024/02/10 12:45:56;;;;;;;;;;;;;;;15.96;46.78;99930.53;4910927;29;1449;-51
2024/02/10 12:48:22;;;;;;;;;;;;;;;15.85;46.11;99934.06;4895254;29;1027;-46
2024/02/10 12:50:49;;;;;;;;;;;;;;;16.50;46.96;99939.25;4890225;29;1028;-47
2024/02/10 12:53:14;;;;;;;;;;;;;;;17.02;46.04;99943.69;4899497;29;1109;-49